createdAt,value
2017-09-19T00:00:14.433Z,42.80
2017-09-19T00:01:14.405Z,43.40
2017-09-19T00:02:14.370Z,44.70
2017-09-19T00:03:14.335Z,44.10
2017-09-19T00:04:14.303Z,45.30
2017-09-19T00:05:14.271Z,50.10
2017-09-19T00:06:14.239Z,50.20
2017-09-19T00:07:14.205Z,46.70
2017-09-19T00:08:14.170Z,50.30
2017-09-19T00:09:14.139Z,48.10
2017-09-19T00:10:14.107Z,51.40
2017-09-19T00:11:14.074Z,49.60
2017-09-19T00:12:14.045Z,45.10
2017-09-19T00:13:14.009Z,51.50
2017-09-19T00:14:13.976Z,50.00
2017-09-19T00:15:13.943Z,48.20
2017-09-19T00:16:13.910Z,46.50
2017-09-19T00:17:13.879Z,52.60
2017-09-19T00:18:13.843Z,47.80
2017-09-19T00:19:13.813Z,45.60
2017-09-19T00:20:13.781Z,52.90
2017-09-19T00:21:13.747Z,54.10
2017-09-19T00:22:13.730Z,53.40
2017-09-19T00:23:13.683Z,52.40
2017-09-19T00:24:13.648Z,52.90
2017-09-19T00:25:13.619Z,53.50
2017-09-19T00:26:13.589Z,49.70
2017-09-19T00:27:13.553Z,53.80
2017-09-19T00:28:13.520Z,50.40
2017-09-19T00:29:13.487Z,55.50
2017-09-19T00:30:13.453Z,51.90
2017-09-19T00:31:13.423Z,51.60
2017-09-19T00:32:13.390Z,60.40
2017-09-19T00:33:13.355Z,53.10
2017-09-19T00:34:13.323Z,57.90
2017-09-19T00:35:13.289Z,55.10
2017-09-19T00:36:13.256Z,54.10
2017-09-19T00:37:13.226Z,54.80
2017-09-19T00:38:13.193Z,51.60
2017-09-19T00:39:13.171Z,48.50
2017-09-19T00:40:13.278Z,46.10
2017-09-19T00:41:13.095Z,49.90
2017-09-19T00:42:13.063Z,48.10
2017-09-19T00:43:13.035Z,47.40
2017-09-19T00:44:13.245Z,46.60
2017-09-19T00:45:12.966Z,50.00
2017-09-19T00:46:12.945Z,47.90
2017-09-19T00:47:12.901Z,46.20
2017-09-19T00:48:12.867Z,46.60
2017-09-19T00:49:12.835Z,44.80
2017-09-19T00:50:12.804Z,48.70
2017-09-19T00:51:12.772Z,46.60
2017-09-19T00:52:12.740Z,50.00
2017-09-19T00:53:12.708Z,47.40
2017-09-19T00:54:12.674Z,50.20
2017-09-19T00:55:12.641Z,46.80
2017-09-19T00:56:12.609Z,50.80
2017-09-19T00:57:12.576Z,47.10
2017-09-19T00:58:12.547Z,49.90
2017-09-19T00:59:12.514Z,48.50
2017-09-19T01:00:12.481Z,47.20
2017-09-19T01:01:12.861Z,42.60
2017-09-19T01:02:12.417Z,51.40
2017-09-19T01:03:12.385Z,43.90
2017-09-19T01:04:12.353Z,46.20
2017-09-19T01:05:12.318Z,46.00
2017-09-19T01:06:12.290Z,51.70
2017-09-19T01:07:12.257Z,47.00
2017-09-19T01:08:12.224Z,51.80
2017-09-19T01:09:12.192Z,50.90
2017-09-19T01:10:12.161Z,49.60
2017-09-19T01:11:12.129Z,50.60
2017-09-19T01:12:12.098Z,46.50
2017-09-19T01:13:12.064Z,44.60
2017-09-19T01:14:12.033Z,44.70
2017-09-19T01:15:11.999Z,47.70
2017-09-19T01:16:11.969Z,45.40
2017-09-19T01:17:11.937Z,47.00
2017-09-19T01:18:11.904Z,43.80
2017-09-19T01:19:11.872Z,50.60
2017-09-19T01:20:11.840Z,47.50
2017-09-19T01:21:11.809Z,46.30
2017-09-19T01:22:11.777Z,48.20
2017-09-19T01:23:11.745Z,42.90
2017-09-19T01:24:11.713Z,42.10
2017-09-19T01:25:11.675Z,41.40
2017-09-19T01:26:11.651Z,41.40
2017-09-19T01:27:11.617Z,44.30
2017-09-19T01:28:11.584Z,46.80
2017-09-19T01:29:11.552Z,48.60
2017-09-19T01:30:11.521Z,48.60
2017-09-19T01:31:11.504Z,47.80
2017-09-19T01:32:11.456Z,44.60
2017-09-19T01:33:11.426Z,50.80
2017-09-19T01:34:11.393Z,43.90
2017-09-19T01:35:11.361Z,45.50
2017-09-19T01:36:11.328Z,45.40
2017-09-19T01:37:11.297Z,45.80
2017-09-19T01:38:11.265Z,47.40
2017-09-19T01:39:11.234Z,44.70
2017-09-19T01:40:12.041Z,49.70
2017-09-19T01:41:11.170Z,46.30
2017-09-19T01:42:11.138Z,44.40
2017-09-19T01:43:11.104Z,47.10
2017-09-19T01:44:11.073Z,48.50
2017-09-19T01:45:11.255Z,51.80
2017-09-19T01:46:11.009Z,51.00
2017-09-19T01:47:10.978Z,42.40
2017-09-19T01:48:10.944Z,49.10
2017-09-19T01:49:10.913Z,46.10
2017-09-19T01:50:10.881Z,47.70
2017-09-19T01:51:10.847Z,47.00
2017-09-19T01:52:10.818Z,45.80
2017-09-19T01:53:10.785Z,49.40
2017-09-19T01:54:10.754Z,49.30
2017-09-19T01:55:10.718Z,44.20
2017-09-19T01:56:10.689Z,51.30
2017-09-19T01:57:10.658Z,49.20
2017-09-19T01:58:10.624Z,47.50
2017-09-19T01:59:10.591Z,51.30
2017-09-19T02:00:10.560Z,41.50
2017-09-19T02:01:10.526Z,53.60
2017-09-19T02:02:10.495Z,48.20
2017-09-19T02:03:10.464Z,50.40
2017-09-19T02:04:10.429Z,46.40
2017-09-19T02:05:10.400Z,51.00
2017-09-19T02:06:10.367Z,50.00
2017-09-19T02:07:10.334Z,46.60
2017-09-19T02:08:10.301Z,49.60
2017-09-19T02:09:10.270Z,52.40
2017-09-19T02:10:10.237Z,48.60
2017-09-19T02:11:10.207Z,53.20
2017-09-19T02:12:10.173Z,45.70
2017-09-19T02:13:10.142Z,50.10
2017-09-19T02:14:10.109Z,51.10
2017-09-19T02:15:10.077Z,51.70
2017-09-19T02:16:10.045Z,48.20
2017-09-19T02:17:10.226Z,46.90
2017-09-19T02:18:09.983Z,54.30
2017-09-19T02:19:09.949Z,49.00
2017-09-19T02:20:09.916Z,52.00
2017-09-19T02:21:09.885Z,48.10
2017-09-19T02:22:09.852Z,49.10
2017-09-19T02:23:09.819Z,53.20
2017-09-19T02:24:09.822Z,49.80
2017-09-19T02:25:09.756Z,49.60
2017-09-19T02:26:09.726Z,49.80
2017-09-19T02:27:09.693Z,52.60
2017-09-19T02:28:09.660Z,51.50
2017-09-19T02:29:09.629Z,58.30
2017-09-19T02:30:09.598Z,48.70
2017-09-19T02:31:09.564Z,50.20
2017-09-19T02:32:09.536Z,47.20
2017-09-19T02:33:09.508Z,48.10
2017-09-19T02:34:09.470Z,45.40
2017-09-19T02:35:09.438Z,52.80
2017-09-19T02:36:09.405Z,52.30
2017-09-19T02:37:09.373Z,49.90
2017-09-19T02:38:09.343Z,49.10
2017-09-19T02:39:09.309Z,48.40
2017-09-19T02:40:09.278Z,55.80
2017-09-19T02:41:09.246Z,52.70
2017-09-19T02:42:09.211Z,54.30
2017-09-19T02:43:09.181Z,52.10
2017-09-19T02:44:09.149Z,46.50
2017-09-19T02:45:09.118Z,46.90
2017-09-19T02:46:09.087Z,44.50
2017-09-19T02:47:09.052Z,51.30
2017-09-19T02:48:09.021Z,50.10
2017-09-19T02:49:08.988Z,49.20
2017-09-19T02:50:08.957Z,53.90
2017-09-19T02:51:08.920Z,51.20
2017-09-19T02:52:08.892Z,49.70
2017-09-19T02:53:08.860Z,53.40
2017-09-19T02:54:08.831Z,50.60
2017-09-19T02:55:08.799Z,51.60
2017-09-19T02:56:08.762Z,53.60
2017-09-19T02:57:08.732Z,55.80
2017-09-19T02:58:08.699Z,55.10
2017-09-19T02:59:08.667Z,53.80
2017-09-19T03:00:08.640Z,55.90
2017-09-19T03:01:08.603Z,53.30
2017-09-19T03:02:08.571Z,52.00
2017-09-19T03:03:08.538Z,50.00
2017-09-19T03:04:08.521Z,54.40
2017-09-19T03:05:08.473Z,53.50
2017-09-19T03:06:08.442Z,52.80
2017-09-19T03:07:08.410Z,53.10
2017-09-19T03:08:08.378Z,58.60
2017-09-19T03:09:08.339Z,48.80
2017-09-19T03:10:08.316Z,47.80
2017-09-19T03:11:08.281Z,50.60
2017-09-19T03:12:08.253Z,53.20
2017-09-19T03:13:08.221Z,50.70
2017-09-19T03:14:08.186Z,51.10
2017-09-19T03:15:08.152Z,57.30
2017-09-19T03:16:08.121Z,54.70
2017-09-19T03:17:08.089Z,49.80
2017-09-19T03:18:08.058Z,51.60
2017-09-19T03:19:08.025Z,52.50
2017-09-19T03:20:07.994Z,50.10
2017-09-19T03:21:07.963Z,53.40
2017-09-19T03:22:07.932Z,55.60
2017-09-19T03:23:07.899Z,61.10
2017-09-19T03:24:07.868Z,51.40
2017-09-19T03:25:07.835Z,54.80
2017-09-19T03:26:07.804Z,54.20
2017-09-19T03:27:07.770Z,62.30
2017-09-19T03:28:07.738Z,52.60
2017-09-19T03:29:07.707Z,54.10
2017-09-19T03:30:07.677Z,60.20
2017-09-19T03:31:07.644Z,56.30
2017-09-19T03:32:07.611Z,52.90
2017-09-19T03:33:07.580Z,59.70
2017-09-19T03:34:07.548Z,50.70
2017-09-19T03:35:07.516Z,56.30
2017-09-19T03:36:07.483Z,59.80
2017-09-19T03:37:07.454Z,55.40
2017-09-19T03:38:07.421Z,55.70
2017-09-19T03:39:07.388Z,64.00
2017-09-19T03:40:07.358Z,56.90
2017-09-19T03:41:07.325Z,52.80
2017-09-19T03:42:07.296Z,53.60
2017-09-19T03:43:07.262Z,53.60
2017-09-19T03:44:07.230Z,59.00
2017-09-19T03:45:07.198Z,54.90
2017-09-19T03:46:07.166Z,60.40
2017-09-19T03:47:07.133Z,66.70
2017-09-19T03:48:07.102Z,56.40
2017-09-19T03:49:07.071Z,57.60
2017-09-19T03:50:07.037Z,57.40
2017-09-19T03:51:07.006Z,54.70
2017-09-19T03:52:06.974Z,56.90
2017-09-19T03:53:06.943Z,58.10
2017-09-19T03:54:06.911Z,54.80
2017-09-19T03:55:06.878Z,55.10
2017-09-19T03:56:06.847Z,57.70
2017-09-19T03:57:06.817Z,49.00
2017-09-19T03:58:06.784Z,52.40
2017-09-19T03:59:06.751Z,55.90
2017-09-19T04:00:06.720Z,64.30
2017-09-19T04:01:06.687Z,48.00
2017-09-19T04:02:06.656Z,50.30
2017-09-19T04:03:06.623Z,52.80
2017-09-19T04:04:06.590Z,49.30
2017-09-19T04:05:06.557Z,45.40
2017-09-19T04:06:06.526Z,54.50
2017-09-19T04:07:06.494Z,50.00
2017-09-19T04:08:06.462Z,54.00
2017-09-19T04:09:06.431Z,53.70
2017-09-19T04:10:06.400Z,50.60
2017-09-19T04:11:06.365Z,54.40
2017-09-19T04:12:06.333Z,54.50
2017-09-19T04:13:06.301Z,51.70
2017-09-19T04:14:06.269Z,55.10
2017-09-19T04:15:06.237Z,50.50
2017-09-19T04:16:06.205Z,52.10
2017-09-19T04:17:06.172Z,52.20
2017-09-19T04:18:06.141Z,63.20
2017-09-19T04:19:06.107Z,62.90
2017-09-19T04:20:06.076Z,54.70
2017-09-19T04:21:06.044Z,54.70
2017-09-19T04:22:06.012Z,58.50
2017-09-19T04:23:05.982Z,52.00
2017-09-19T04:24:05.947Z,51.70
2017-09-19T04:25:05.915Z,51.30
2017-09-19T04:26:05.882Z,62.20
2017-09-19T04:27:05.851Z,67.00
2017-09-19T04:28:05.818Z,58.80
2017-09-19T04:29:05.787Z,51.20
2017-09-19T04:30:05.752Z,57.10
2017-09-19T04:31:05.724Z,62.00
2017-09-19T04:32:05.690Z,51.00
2017-09-19T04:33:05.655Z,60.00
2017-09-19T04:34:05.626Z,56.20
2017-09-19T04:35:05.590Z,57.20
2017-09-19T04:36:05.560Z,56.20
2017-09-19T04:37:05.527Z,63.90
2017-09-19T04:38:05.496Z,57.10
2017-09-19T04:39:05.463Z,56.30
2017-09-19T04:40:05.430Z,65.80
2017-09-19T04:41:05.400Z,55.10
2017-09-19T04:42:05.368Z,54.60
2017-09-19T04:43:05.334Z,56.00
2017-09-19T04:44:05.303Z,62.10
2017-09-19T04:45:05.270Z,57.50
2017-09-19T04:46:05.237Z,58.40
2017-09-19T04:47:05.204Z,56.80
2017-09-19T04:48:05.170Z,57.40
2017-09-19T04:49:05.141Z,56.70
2017-09-19T04:50:05.109Z,50.30
2017-09-19T04:51:05.085Z,63.20
2017-09-19T04:52:05.045Z,63.50
2017-09-19T04:53:05.014Z,55.90
2017-09-19T04:54:04.981Z,56.30
2017-09-19T04:55:04.948Z,49.80
2017-09-19T04:56:04.915Z,49.50
2017-09-19T04:57:04.885Z,54.90
2017-09-19T04:58:04.851Z,58.40
2017-09-19T04:59:04.813Z,49.80
2017-09-19T05:00:04.786Z,53.40
2017-09-19T05:01:04.756Z,51.60
2017-09-19T05:02:04.724Z,63.50
2017-09-19T05:03:04.696Z,54.80
2017-09-19T05:04:04.659Z,59.90
2017-09-19T05:05:04.630Z,45.10
2017-09-19T05:06:04.593Z,64.20
2017-09-19T05:07:04.565Z,58.10
2017-09-19T05:08:04.531Z,59.10
2017-09-19T05:09:04.498Z,57.40
2017-09-19T05:10:04.469Z,58.10
2017-09-19T05:11:04.775Z,58.30
2017-09-19T05:12:04.398Z,57.40
2017-09-19T05:13:04.369Z,57.40
2017-09-19T05:14:04.335Z,65.40
2017-09-19T05:15:04.307Z,72.00
2017-09-19T05:16:04.272Z,54.00
2017-09-19T05:17:04.242Z,61.60
2017-09-19T05:18:04.210Z,64.30
2017-09-19T05:19:04.184Z,89.30
2017-09-19T05:20:04.145Z,66.50
2017-09-19T05:21:04.111Z,57.00
2017-09-19T05:22:04.080Z,55.30
2017-09-19T05:23:04.047Z,72.80
2017-09-19T05:24:04.012Z,66.60
2017-09-19T05:25:03.981Z,66.20
2017-09-19T05:26:03.955Z,58.00
2017-09-19T05:27:03.917Z,64.90
2017-09-19T05:28:03.885Z,56.80
2017-09-19T05:29:03.854Z,63.40
2017-09-19T05:30:03.822Z,51.30
2017-09-19T05:31:03.789Z,66.20
2017-09-19T05:32:03.759Z,63.10
2017-09-19T05:33:03.755Z,57.20
2017-09-19T05:34:03.692Z,56.70
2017-09-19T05:35:03.660Z,57.10
2017-09-19T05:36:03.627Z,58.10
2017-09-19T05:37:03.596Z,59.30
2017-09-19T05:38:03.564Z,64.80
2017-09-19T05:39:03.532Z,51.90
2017-09-19T05:40:03.500Z,56.00
2017-09-19T05:41:03.467Z,57.20
2017-09-19T05:42:03.438Z,68.80
2017-09-19T05:43:03.403Z,56.90
2017-09-19T05:44:03.371Z,66.10
2017-09-19T05:45:03.338Z,62.00
2017-09-19T05:46:03.307Z,60.90
2017-09-19T05:47:03.275Z,62.90
2017-09-19T05:48:03.243Z,56.80
2017-09-19T05:49:03.210Z,59.60
2017-09-19T05:50:03.178Z,58.10
2017-09-19T05:51:03.160Z,102.50
2017-09-19T05:52:03.114Z,71.00
2017-09-19T05:53:03.081Z,66.50
2017-09-19T05:54:03.050Z,55.10
2017-09-19T05:55:03.021Z,60.50
2017-09-19T05:56:02.986Z,60.00
2017-09-19T05:57:02.953Z,72.10
2017-09-19T05:58:02.922Z,65.20
2017-09-19T05:59:02.890Z,58.90
2017-09-19T06:00:02.858Z,64.20
2017-09-19T06:01:02.825Z,62.10
2017-09-19T06:02:02.792Z,74.10
2017-09-19T06:03:02.761Z,64.00
2017-09-19T06:04:02.729Z,64.50
2017-09-19T06:05:02.697Z,62.30
2017-09-19T06:06:02.665Z,72.30
2017-09-19T06:07:02.633Z,76.90
2017-09-19T06:08:02.603Z,70.00
2017-09-19T06:09:02.567Z,71.30
2017-09-19T06:10:02.536Z,69.70
2017-09-19T06:11:02.501Z,73.20
2017-09-19T06:12:02.473Z,69.50
2017-09-19T06:13:02.440Z,67.60
2017-09-19T06:14:02.408Z,75.90
2017-09-19T06:15:02.375Z,76.90
2017-09-19T06:16:02.337Z,68.60
2017-09-19T06:17:02.313Z,74.20
2017-09-19T06:18:02.279Z,79.10
2017-09-19T06:19:02.246Z,82.10
2017-09-19T06:20:02.218Z,80.20
2017-09-19T06:21:02.180Z,85.00
2017-09-19T06:22:02.148Z,76.00
2017-09-19T06:23:02.115Z,74.20
2017-09-19T06:24:02.082Z,69.10
2017-09-19T06:25:02.049Z,75.30
2017-09-19T06:26:02.021Z,74.30
2017-09-19T06:27:01.986Z,74.20
2017-09-19T06:28:01.952Z,74.90
2017-09-19T06:29:01.919Z,78.00
2017-09-19T06:30:01.888Z,77.40
2017-09-19T06:31:01.856Z,76.10
2017-09-19T06:32:01.823Z,70.50
2017-09-19T06:33:01.791Z,78.00
2017-09-19T06:34:01.760Z,74.30
2017-09-19T06:35:01.728Z,77.70
2017-09-19T06:36:01.695Z,70.30
2017-09-19T06:37:01.662Z,70.20
2017-09-19T06:38:01.631Z,69.30
2017-09-19T06:39:01.597Z,80.10
2017-09-19T06:40:01.565Z,70.30
2017-09-19T06:41:01.533Z,66.20
2017-09-19T06:42:01.502Z,70.40
2017-09-19T06:43:01.468Z,74.40
2017-09-19T06:44:01.436Z,74.40
2017-09-19T06:45:01.406Z,69.20
2017-09-19T06:46:01.371Z,64.30
2017-09-19T06:47:01.340Z,67.20
2017-09-19T06:48:01.322Z,63.50
2017-09-19T06:49:01.276Z,65.50
2017-09-19T06:50:01.244Z,67.00
2017-09-19T06:51:01.213Z,64.90
2017-09-19T06:52:01.182Z,69.40
2017-09-19T06:53:01.149Z,71.10
2017-09-19T06:54:01.116Z,67.40
2017-09-19T06:55:01.081Z,66.00
2017-09-19T06:56:01.050Z,63.10
2017-09-19T06:57:01.020Z,79.80
2017-09-19T06:58:00.988Z,73.10
2017-09-19T06:59:00.955Z,70.30
2017-09-19T07:00:00.923Z,69.70
2017-09-19T07:01:00.891Z,76.30
2017-09-19T07:02:00.860Z,71.20
2017-09-19T07:03:00.827Z,68.70
2017-09-19T07:04:00.795Z,64.30
2017-09-19T07:05:00.763Z,72.60
2017-09-19T07:06:00.732Z,67.20
2017-09-19T07:07:00.698Z,69.30
2017-09-19T07:08:00.665Z,66.80
2017-09-19T07:09:00.637Z,69.00
2017-09-19T07:10:00.605Z,73.90
2017-09-19T07:11:00.573Z,66.30
2017-09-19T07:12:00.541Z,65.50
2017-09-19T07:13:00.510Z,72.00
2017-09-19T07:14:00.478Z,77.50
2017-09-19T07:15:00.446Z,72.60
2017-09-19T07:16:00.414Z,75.10
2017-09-19T07:17:00.382Z,68.80
2017-09-19T07:18:00.350Z,68.40
2017-09-19T07:19:00.319Z,71.30
2017-09-19T07:20:00.288Z,72.60
2017-09-19T07:21:00.257Z,63.70
2017-09-19T07:22:00.225Z,64.80
2017-09-19T07:23:00.191Z,62.20
2017-09-19T07:24:00.160Z,73.50
2017-09-19T07:25:00.128Z,68.60
2017-09-19T07:26:00.099Z,67.00
2017-09-19T07:27:00.066Z,75.10
2017-09-19T07:28:00.034Z,77.50
2017-09-19T07:29:00.003Z,75.20
2017-09-19T07:29:59.971Z,64.30
2017-09-19T07:31:00.322Z,69.60
2017-09-19T07:31:59.909Z,73.30
2017-09-19T07:32:59.884Z,72.30
2017-09-19T07:33:59.847Z,69.70
2017-09-19T07:34:59.812Z,64.20
2017-09-19T07:35:59.783Z,71.30
2017-09-19T07:36:59.750Z,76.30
2017-09-19T07:37:59.720Z,72.40
2017-09-19T07:38:59.685Z,74.70
2017-09-19T07:39:59.657Z,71.40
2017-09-19T07:40:59.627Z,74.80
2017-09-19T07:41:59.593Z,76.30
2017-09-19T07:42:59.562Z,72.90
2017-09-19T07:43:59.529Z,71.10
2017-09-19T07:44:59.498Z,75.30
2017-09-19T07:45:59.468Z,66.80
2017-09-19T07:46:59.437Z,73.80
2017-09-19T07:47:59.405Z,81.40
2017-09-19T07:48:59.373Z,77.30
2017-09-19T07:49:59.341Z,89.30
2017-09-19T07:50:59.311Z,80.40
2017-09-19T07:51:59.278Z,72.00
2017-09-19T07:52:59.247Z,87.20
2017-09-19T07:53:59.295Z,82.80
2017-09-19T07:54:59.184Z,83.90
2017-09-19T07:55:59.151Z,89.00
2017-09-19T07:56:59.120Z,82.60
2017-09-19T07:57:59.089Z,81.90
2017-09-19T07:58:59.059Z,74.60
2017-09-19T07:59:59.020Z,83.70
2017-09-19T08:00:58.994Z,69.60
2017-09-19T08:01:58.961Z,83.80
2017-09-19T08:02:58.931Z,76.50
2017-09-19T08:03:58.898Z,83.90
2017-09-19T08:04:58.868Z,78.70
2017-09-19T08:05:58.838Z,80.20
2017-09-19T08:06:58.805Z,73.90
2017-09-19T08:07:58.773Z,82.50
2017-09-19T08:08:58.742Z,71.80
2017-09-19T08:09:58.711Z,67.10
2017-09-19T08:10:58.678Z,72.80
2017-09-19T08:11:58.648Z,73.10
2017-09-19T08:12:58.616Z,71.60
2017-09-19T08:13:58.586Z,71.50
2017-09-19T08:14:58.553Z,70.70
2017-09-19T08:15:58.523Z,76.60
2017-09-19T08:16:58.885Z,75.10
2017-09-19T08:17:58.461Z,76.40
2017-09-19T08:18:58.427Z,66.70
2017-09-19T08:19:58.395Z,67.00
2017-09-19T08:20:58.363Z,72.80
2017-09-19T08:21:58.333Z,66.80
2017-09-19T08:22:58.303Z,67.00
2017-09-19T08:23:58.271Z,65.10
2017-09-19T08:24:58.240Z,67.70
2017-09-19T08:25:58.209Z,68.50
2017-09-19T08:26:58.177Z,66.30
2017-09-19T08:27:58.146Z,67.80
2017-09-19T08:28:58.115Z,63.10
2017-09-19T08:29:58.083Z,78.10
2017-09-19T08:30:58.052Z,71.90
2017-09-19T08:31:58.021Z,67.20
2017-09-19T08:32:57.990Z,75.50
2017-09-19T08:33:57.959Z,69.90
2017-09-19T08:34:57.928Z,73.40
2017-09-19T08:35:57.898Z,72.80
2017-09-19T08:36:57.866Z,76.50
2017-09-19T08:37:57.835Z,69.80
2017-09-19T08:38:57.802Z,82.30
2017-09-19T08:39:57.771Z,72.70
2017-09-19T08:40:57.745Z,71.70
2017-09-19T08:41:57.713Z,82.20
2017-09-19T08:42:57.678Z,66.40
2017-09-19T08:43:57.674Z,76.50
2017-09-19T08:44:57.616Z,78.60
2017-09-19T08:45:57.585Z,80.90
2017-09-19T08:46:57.553Z,68.60
2017-09-19T08:47:57.521Z,71.10
2017-09-19T08:48:57.492Z,73.90
2017-09-19T08:49:57.460Z,69.60
2017-09-19T08:50:57.432Z,73.80
2017-09-19T08:51:57.397Z,79.20
2017-09-19T08:52:57.367Z,78.70
2017-09-19T08:53:57.336Z,81.70
2017-09-19T08:54:57.304Z,73.40
2017-09-19T08:55:57.272Z,69.60
2017-09-19T08:56:57.253Z,78.30
2017-09-19T08:57:57.213Z,75.30
2017-09-19T08:58:57.286Z,81.30
2017-09-19T08:59:57.149Z,80.80
2017-09-19T09:00:57.118Z,77.90
2017-09-19T09:01:57.089Z,76.10
2017-09-19T09:02:57.053Z,79.70
2017-09-19T09:03:57.025Z,75.40
2017-09-19T09:04:56.993Z,72.40
2017-09-19T09:05:56.963Z,76.80
2017-09-19T09:06:56.930Z,80.10
2017-09-19T09:07:56.900Z,81.50
2017-09-19T09:08:56.870Z,77.50
2017-09-19T09:09:56.837Z,74.30
2017-09-19T09:10:56.807Z,75.40
2017-09-19T09:11:56.775Z,80.70
2017-09-19T09:12:56.744Z,80.50
2017-09-19T09:13:56.714Z,75.10
2017-09-19T09:14:56.684Z,82.20
2017-09-19T09:15:56.651Z,78.20
2017-09-19T09:16:56.620Z,76.50
2017-09-19T09:17:56.590Z,79.20
2017-09-19T09:18:56.558Z,77.90
2017-09-19T09:19:56.522Z,83.10
2017-09-19T09:20:56.495Z,78.70
2017-09-19T09:21:56.468Z,76.10
2017-09-19T09:22:56.436Z,74.00
2017-09-19T09:23:56.404Z,71.90
2017-09-19T09:24:56.378Z,66.30
2017-09-19T09:25:56.345Z,63.70
2017-09-19T09:26:56.313Z,62.70
2017-09-19T09:27:56.283Z,66.80
2017-09-19T09:28:56.251Z,60.60
2017-09-19T09:29:56.224Z,61.90
2017-09-19T09:30:56.191Z,62.50
2017-09-19T09:31:56.162Z,62.90
2017-09-19T09:32:56.131Z,59.00
2017-09-19T09:33:56.100Z,64.90
2017-09-19T09:34:56.069Z,60.80
2017-09-19T09:35:56.039Z,64.60
2017-09-19T09:36:56.008Z,62.10
2017-09-19T09:37:55.979Z,57.50
2017-09-19T09:38:55.952Z,59.20
2017-09-19T09:39:55.928Z,51.00
2017-09-19T09:40:55.888Z,56.00
2017-09-19T09:41:55.858Z,59.60
2017-09-19T09:42:55.827Z,55.40
2017-09-19T09:43:55.798Z,56.40
2017-09-19T09:44:55.770Z,56.70
2017-09-19T09:45:55.739Z,60.20
2017-09-19T09:46:55.714Z,54.70
2017-09-19T09:47:55.679Z,61.80
2017-09-19T09:48:55.651Z,49.80
2017-09-19T09:49:55.621Z,58.90
2017-09-19T09:50:55.593Z,49.20
2017-09-19T09:51:55.561Z,50.90
2017-09-19T09:52:55.531Z,45.10
2017-09-19T09:53:55.504Z,49.70
2017-09-19T09:54:55.473Z,46.10
2017-09-19T09:55:55.443Z,47.40
2017-09-19T09:56:55.420Z,53.00
2017-09-19T09:57:55.387Z,46.40
2017-09-19T09:58:55.357Z,54.60
2017-09-19T09:59:55.327Z,47.20
2017-09-19T10:00:55.300Z,47.10
2017-09-19T10:01:55.272Z,49.60
2017-09-19T10:02:55.241Z,52.30
2017-09-19T10:03:55.214Z,52.50
2017-09-19T10:04:55.186Z,53.20
2017-09-19T10:05:55.156Z,51.10
2017-09-19T10:06:55.127Z,47.50
2017-09-19T10:07:55.096Z,48.90
2017-09-19T10:08:55.074Z,51.30
2017-09-19T10:09:55.042Z,43.80
2017-09-19T10:10:55.014Z,50.00
2017-09-19T10:11:54.987Z,48.90
2017-09-19T10:12:54.954Z,54.70
2017-09-19T10:13:54.927Z,58.00
2017-09-19T10:14:54.898Z,52.90
2017-09-19T10:15:54.867Z,51.70
2017-09-19T10:16:54.838Z,53.90
2017-09-19T10:17:54.809Z,55.20
2017-09-19T10:18:54.780Z,53.00
2017-09-19T10:19:54.750Z,58.70
2017-09-19T10:20:54.721Z,57.80
2017-09-19T10:21:54.693Z,54.90
2017-09-19T10:22:54.661Z,53.50
2017-09-19T10:23:54.631Z,60.80
2017-09-19T10:24:54.605Z,60.70
2017-09-19T10:25:54.572Z,64.70
2017-09-19T10:26:54.542Z,61.90
2017-09-19T10:27:54.514Z,62.60
2017-09-19T10:28:54.484Z,66.00
2017-09-19T10:29:54.455Z,67.40
2017-09-19T10:30:54.423Z,64.40
2017-09-19T10:31:54.394Z,63.20
2017-09-19T10:32:54.365Z,64.60
2017-09-19T10:33:54.333Z,67.30
2017-09-19T10:34:54.302Z,73.00
2017-09-19T10:35:54.275Z,71.00
2017-09-19T10:36:54.242Z,69.70
2017-09-19T10:37:54.212Z,74.80
2017-09-19T10:38:54.183Z,70.30
2017-09-19T10:39:54.150Z,70.40
2017-09-19T10:40:54.121Z,67.60
2017-09-19T10:41:54.091Z,66.30
2017-09-19T10:42:54.067Z,64.30
2017-09-19T10:43:54.841Z,58.20
2017-09-19T10:44:54.009Z,62.00
2017-09-19T10:45:53.970Z,62.50
2017-09-19T10:46:53.940Z,60.70
2017-09-19T10:47:53.908Z,58.40
2017-09-19T10:48:53.878Z,59.30
2017-09-19T10:49:53.849Z,59.90
2017-09-19T10:50:53.817Z,66.20
2017-09-19T10:51:53.787Z,65.50
2017-09-19T10:52:53.759Z,61.40
2017-09-19T10:53:53.727Z,63.30
2017-09-19T10:54:53.697Z,63.20
2017-09-19T10:55:53.667Z,66.50
2017-09-19T10:56:53.636Z,64.10
2017-09-19T10:57:53.607Z,63.50
2017-09-19T10:58:53.576Z,56.20
2017-09-19T10:59:53.547Z,71.20
2017-09-19T11:00:53.517Z,66.60
2017-09-19T11:01:53.488Z,61.20
2017-09-19T11:02:53.457Z,56.00
2017-09-19T11:03:53.427Z,59.60
2017-09-19T11:04:53.399Z,65.00
2017-09-19T11:05:53.380Z,59.00
2017-09-19T11:06:53.337Z,57.70
2017-09-19T11:07:53.308Z,60.60
2017-09-19T11:08:53.279Z,65.90
2017-09-19T11:09:53.248Z,66.50
2017-09-19T11:10:53.261Z,61.30
2017-09-19T11:11:53.188Z,72.40
2017-09-19T11:12:53.162Z,74.90
2017-09-19T11:13:53.127Z,75.80
2017-09-19T11:14:53.098Z,77.90
2017-09-19T11:15:53.062Z,86.20
2017-09-19T11:16:53.061Z,81.20
2017-09-19T11:17:53.006Z,79.20
2017-09-19T11:18:52.974Z,89.70
2017-09-19T11:19:52.945Z,86.30
2017-09-19T11:20:52.913Z,86.10
2017-09-19T11:21:52.883Z,74.20
2017-09-19T11:22:52.853Z,88.10
2017-09-19T11:23:52.821Z,98.80
2017-09-19T11:24:52.790Z,94.70
2017-09-19T11:25:52.760Z,95.80
2017-09-19T11:26:52.729Z,93.70
2017-09-19T11:27:52.697Z,93.40
2017-09-19T11:28:52.667Z,97.50
2017-09-19T11:29:52.633Z,99.90
2017-09-19T11:30:52.604Z,129.60
2017-09-19T11:31:52.592Z,112.90
2017-09-19T11:32:52.544Z,111.70
2017-09-19T11:33:52.513Z,101.40
2017-09-19T11:34:52.481Z,95.40
2017-09-19T11:35:52.451Z,101.60
2017-09-19T11:36:52.420Z,102.60
2017-09-19T11:37:52.390Z,100.00
2017-09-19T11:38:52.358Z,97.80
2017-09-19T11:39:52.330Z,87.20
2017-09-19T11:40:52.297Z,100.90
2017-09-19T11:41:52.266Z,87.60
2017-09-19T11:42:52.236Z,102.50
2017-09-19T11:43:52.205Z,96.60
2017-09-19T11:44:52.175Z,99.70
2017-09-19T11:45:52.143Z,92.10
2017-09-19T11:46:52.113Z,87.60
2017-09-19T11:47:52.082Z,84.00
2017-09-19T11:48:52.049Z,87.30
2017-09-19T11:49:52.023Z,86.60
2017-09-19T11:50:52.152Z,90.50
2017-09-19T11:51:51.962Z,92.20
2017-09-19T11:52:51.931Z,87.80
2017-09-19T11:53:51.901Z,82.60
2017-09-19T11:54:51.871Z,86.10
2017-09-19T11:55:51.840Z,85.20
2017-09-19T11:56:51.811Z,95.10
2017-09-19T11:57:51.780Z,88.50
2017-09-19T11:58:51.749Z,90.60
2017-09-19T11:59:51.719Z,89.60
2017-09-19T12:00:51.695Z,81.00
2017-09-19T12:01:51.658Z,88.70
2017-09-19T12:02:51.632Z,75.70
2017-09-19T12:03:51.597Z,72.90
2017-09-19T12:04:51.568Z,73.50
2017-09-19T12:05:51.539Z,67.00
2017-09-19T12:06:51.506Z,66.40
2017-09-19T12:07:51.478Z,68.70
2017-09-19T12:08:51.451Z,70.90
2017-09-19T12:09:51.417Z,63.40
2017-09-19T12:10:51.387Z,64.10
2017-09-19T12:11:51.532Z,61.70
2017-09-19T12:12:51.663Z,66.90
2017-09-19T12:13:51.297Z,63.10
2017-09-19T12:14:51.268Z,64.10
2017-09-19T12:15:51.238Z,61.10
2017-09-19T12:16:51.208Z,63.50
2017-09-19T12:17:51.180Z,57.50
2017-09-19T12:18:51.149Z,60.80
2017-09-19T12:19:51.118Z,60.30
2017-09-19T12:20:51.088Z,59.60
2017-09-19T12:21:51.059Z,56.10
2017-09-19T12:22:51.154Z,57.00
2017-09-19T12:23:50.998Z,60.40
2017-09-19T12:24:50.970Z,55.80
2017-09-19T12:25:50.941Z,56.70
2017-09-19T12:26:50.916Z,55.30
2017-09-19T12:27:50.885Z,45.80
2017-09-19T12:28:50.860Z,54.10
2017-09-19T12:29:50.832Z,52.20
2017-09-19T12:30:50.798Z,51.20
2017-09-19T12:31:50.778Z,44.70
2017-09-19T12:32:50.753Z,46.00
2017-09-19T12:33:50.730Z,48.20
2017-09-19T12:34:50.704Z,44.60
2017-09-19T12:35:50.685Z,48.90
2017-09-19T12:36:50.660Z,39.60
2017-09-19T12:37:50.638Z,40.80
2017-09-19T12:38:50.616Z,39.50
2017-09-19T12:39:50.596Z,39.50
2017-09-19T12:40:50.574Z,37.60
2017-09-19T12:41:50.553Z,33.00
2017-09-19T12:42:50.527Z,35.40
2017-09-19T12:43:50.512Z,34.80
2017-09-19T12:44:50.495Z,33.90
2017-09-19T12:45:50.476Z,35.50
2017-09-19T12:46:50.455Z,36.90
2017-09-19T12:47:50.438Z,35.20
2017-09-19T12:48:50.417Z,32.60
2017-09-19T12:49:50.404Z,37.30
2017-09-19T12:50:50.378Z,33.90
2017-09-19T12:51:50.358Z,36.60